createdAt,value
2022-10-04T00:01:21.903Z,100.00
2022-10-04T00:04:07.420Z,100.00
2022-10-04T00:06:42.403Z,100.00
2022-10-04T00:09:21.048Z,100.00
2022-10-04T00:12:00.639Z,100.00
2022-10-04T00:14:44.773Z,100.00
2022-10-04T00:17:25.277Z,100.00
2022-10-04T00:20:05.013Z,100.00
2022-10-04T00:22:33.848Z,100.00
2022-10-04T00:25:24.558Z,100.00
2022-10-04T00:28:22.575Z,100.00
2022-10-04T00:31:17.324Z,100.00
2022-10-04T00:34:18.884Z,100.00
2022-10-04T00:37:38.765Z,100.00
2022-10-04T00:40:21.809Z,100.00
2022-10-04T00:43:34.646Z,100.00
2022-10-04T00:46:12.109Z,100.00
2022-10-04T00:49:09.962Z,100.00
2022-10-04T00:52:01.029Z,100.00
2022-10-04T00:55:22.400Z,100.00
2022-10-04T00:57:54.431Z,100.00
2022-10-04T01:00:34.164Z,100.00
2022-10-04T01:03:35.635Z,100.00
2022-10-04T01:06:11.171Z,100.00
2022-10-04T01:09:09.120Z,100.00
2022-10-04T01:12:07.567Z,100.00
2022-10-04T01:15:12.475Z,100.00
2022-10-04T01:17:41.837Z,100.00
2022-10-04T01:20:35.149Z,100.00
2022-10-04T01:23:05.880Z,100.00
2022-10-04T01:26:07.878Z,100.00
2022-10-04T01:28:38.699Z,100.00
2022-10-04T01:31:05.729Z,100.00
2022-10-04T01:33:36.926Z,100.00
2022-10-04T01:36:09.885Z,100.00
2022-10-04T01:38:45.588Z,100.00
2022-10-04T01:41:17.313Z,100.00
2022-10-04T01:43:49.560Z,100.00
2022-10-04T01:46:37.569Z,100.00
2022-10-04T01:49:10.413Z,100.00
2022-10-04T01:51:42.547Z,100.00
2022-10-04T01:54:18.537Z,100.00
2022-10-04T01:56:57.448Z,100.00
2022-10-04T01:59:29.789Z,100.00
2022-10-04T02:02:34.772Z,100.00
2022-10-04T02:05:10.358Z,100.00
2022-10-04T02:07:49.152Z,100.00
2022-10-04T02:13:33.927Z,100.00
2022-10-04T02:16:17.941Z,100.00
2022-10-04T02:22:09.538Z,100.00
2022-10-04T02:24:46.932Z,100.00
2022-10-04T02:27:42.271Z,100.00
2022-10-04T02:30:16.912Z,100.00
2022-10-04T02:33:11.124Z,100.00
2022-10-04T02:35:45.917Z,100.00
2022-10-04T02:38:59.900Z,100.00
2022-10-04T02:42:02.849Z,100.00
2022-10-04T02:48:11.226Z,100.00
2022-10-04T02:50:49.023Z,100.00
2022-10-04T02:53:33.514Z,100.00
2022-10-04T02:56:15.693Z,100.00
2022-10-04T02:59:14.289Z,100.00
2022-10-04T03:02:07.083Z,100.00
2022-10-04T03:04:40.756Z,100.00
2022-10-04T03:07:27.341Z,100.00
2022-10-04T03:10:29.077Z,100.00
2022-10-04T03:12:59.543Z,100.00
2022-10-04T03:15:39.001Z,100.00
2022-10-04T03:18:11.196Z,100.00
2022-10-04T03:23:36.267Z,100.00
2022-10-04T03:26:38.170Z,100.00
2022-10-04T03:29:25.969Z,100.00
2022-10-04T03:35:03.773Z,100.00
2022-10-04T03:38:01.252Z,100.00
2022-10-04T03:40:38.600Z,100.00
2022-10-04T03:43:18.773Z,100.00
2022-10-04T03:45:52.836Z,100.00
2022-10-04T03:48:39.174Z,100.00
2022-10-04T03:51:19.579Z,100.00
2022-10-04T03:54:06.060Z,100.00
2022-10-04T03:56:41.576Z,100.00
2022-10-04T03:59:18.207Z,100.00
2022-10-04T04:02:24.838Z,100.00
2022-10-04T04:08:24.120Z,100.00
2022-10-04T04:11:07.366Z,100.00
2022-10-04T04:13:52.251Z,100.00
2022-10-04T04:16:28.687Z,100.00
2022-10-04T04:19:08.796Z,100.00
2022-10-04T04:21:37.285Z,100.00
2022-10-04T04:24:22.650Z,100.00
2022-10-04T04:27:08.414Z,100.00
2022-10-04T04:30:06.393Z,100.00
2022-10-04T04:32:47.966Z,100.00
2022-10-04T04:35:46.186Z,100.00
2022-10-04T04:38:45.105Z,100.00
2022-10-04T04:41:32.347Z,100.00
2022-10-04T04:44:04.164Z,100.00
2022-10-04T04:46:32.794Z,100.00
2022-10-04T04:49:05.590Z,100.00
2022-10-04T04:51:38.283Z,100.00
2022-10-04T04:54:11.691Z,100.00
2022-10-04T04:56:53.170Z,100.00
2022-10-04T05:02:37.248Z,100.00
2022-10-04T05:05:44.198Z,100.00
2022-10-04T05:08:28.124Z,100.00
2022-10-04T05:10:59.325Z,100.00
2022-10-04T05:13:55.530Z,100.00
2022-10-04T05:17:14.276Z,100.00
2022-10-04T05:22:35.487Z,100.00
2022-10-04T05:25:09.643Z,100.00
2022-10-04T05:28:01.844Z,100.00
2022-10-04T05:31:27.504Z,100.00
2022-10-04T05:33:58.815Z,100.00
2022-10-04T05:36:31.268Z,100.00
2022-10-04T05:39:24.785Z,100.00
2022-10-04T05:42:02.005Z,100.00
2022-10-04T05:44:36.461Z,100.00
2022-10-04T05:47:07.233Z,100.00
2022-10-04T05:49:43.812Z,100.00
2022-10-04T05:52:50.389Z,100.00
2022-10-04T05:55:41.437Z,100.00
2022-10-04T05:58:49.553Z,100.00
2022-10-04T06:01:38.156Z,100.00
2022-10-04T06:04:25.239Z,100.00
2022-10-04T06:07:00.864Z,100.00
2022-10-04T06:09:46.495Z,100.00
2022-10-04T06:12:30.168Z,100.00
2022-10-04T06:15:27.915Z,100.00
2022-10-04T06:18:15.895Z,100.00
2022-10-04T06:20:54.876Z,100.00
2022-10-04T06:23:23.751Z,100.00
2022-10-04T06:26:05.171Z,100.00
2022-10-04T06:28:53.922Z,100.00
2022-10-04T06:31:49.127Z,100.00
2022-10-04T06:34:18.155Z,100.00
2022-10-04T06:37:10.738Z,100.00
2022-10-04T06:39:44.539Z,100.00
2022-10-04T06:42:27.714Z,100.00
2022-10-04T06:45:06.135Z,100.00
2022-10-04T06:47:56.793Z,100.00
2022-10-04T06:50:35.286Z,100.00
2022-10-04T06:53:29.405Z,100.00
2022-10-04T06:56:05.657Z,100.00
2022-10-04T06:58:48.618Z,100.00
2022-10-04T07:01:27.591Z,100.00
2022-10-04T07:04:22.401Z,100.00
2022-10-04T07:07:26.516Z,100.00
2022-10-04T07:10:08.329Z,100.00
2022-10-04T07:12:43.125Z,100.00
2022-10-04T07:15:20.876Z,100.00
2022-10-04T07:17:48.923Z,100.00
2022-10-04T07:20:22.695Z,100.00
2022-10-04T07:22:58.314Z,100.00
2022-10-04T07:25:31.776Z,100.00
2022-10-04T07:28:33.370Z,100.00
2022-10-04T07:31:09.953Z,100.00
2022-10-04T07:33:48.199Z,100.00
2022-10-04T07:36:25.354Z,100.00
2022-10-04T07:39:00.247Z,100.00
2022-10-04T07:41:31.966Z,100.00
2022-10-04T07:44:32.016Z,100.00
2022-10-04T07:47:21.028Z,100.00
2022-10-04T07:49:51.213Z,100.00
2022-10-04T07:52:48.109Z,100.00
2022-10-04T07:55:23.793Z,100.00
2022-10-04T07:58:16.270Z,100.00
2022-10-04T08:01:01.546Z,100.00
2022-10-04T08:04:05.476Z,100.00
2022-10-04T08:06:57.798Z,100.00
2022-10-04T08:09:33.400Z,100.00
2022-10-04T08:12:03.725Z,100.00
2022-10-04T08:14:39.410Z,100.00
2022-10-04T08:17:29.695Z,100.00
2022-10-04T08:20:25.875Z,100.00
2022-10-04T08:23:00.934Z,100.00
2022-10-04T08:25:50.890Z,100.00
2022-10-04T08:28:45.872Z,100.00
2022-10-04T08:31:27.123Z,100.00
2022-10-04T08:34:12.041Z,100.00
2022-10-04T08:37:15.765Z,100.00
2022-10-04T08:39:57.876Z,100.00
2022-10-04T08:42:35.998Z,100.00
2022-10-04T08:45:39.825Z,100.00
2022-10-04T08:48:25.096Z,100.00
2022-10-04T08:51:12.963Z,100.00
2022-10-04T08:54:02.104Z,100.00
2022-10-04T08:56:51.034Z,100.00
2022-10-04T08:59:57.975Z,100.00
2022-10-04T09:03:01.853Z,100.00
2022-10-04T09:05:56.134Z,100.00
2022-10-04T09:09:02.904Z,100.00
2022-10-04T09:11:51.509Z,100.00
2022-10-04T09:14:57.255Z,100.00
2022-10-04T09:17:33.277Z,100.00
2022-10-04T09:20:37.905Z,100.00
2022-10-04T09:23:24.417Z,100.00
2022-10-04T09:26:23.678Z,100.00
2022-10-04T09:29:10.568Z,100.00
2022-10-04T09:31:47.726Z,100.00
2022-10-04T09:34:23.863Z,100.00
2022-10-04T09:37:29.608Z,100.00
2022-10-04T09:40:34.659Z,100.00
2022-10-04T09:43:07.408Z,100.00
2022-10-04T09:45:36.411Z,100.00
2022-10-04T09:48:05.757Z,100.00
2022-10-04T09:50:58.190Z,100.00
2022-10-04T09:53:49.906Z,100.00
2022-10-04T09:56:40.669Z,100.00
2022-10-04T09:59:27.223Z,100.00
2022-10-04T10:02:10.281Z,100.00
2022-10-04T10:05:02.136Z,100.00
2022-10-04T10:07:50.523Z,100.00
2022-10-04T10:10:41.603Z,100.00
2022-10-04T10:13:39.395Z,98.01
2022-10-04T10:16:25.873Z,97.69
2022-10-04T10:19:29.609Z,98.34
2022-10-04T10:22:10.850Z,95.49
2022-10-04T10:25:08.459Z,94.44
2022-10-04T10:28:06.446Z,94.19
2022-10-04T10:30:57.510Z,91.46
2022-10-04T10:33:52.451Z,90.81
2022-10-04T10:36:42.399Z,92.55
2022-10-04T10:39:24.163Z,90.82
2022-10-04T10:42:25.142Z,90.37
2022-10-04T10:44:51.633Z,89.84
2022-10-04T10:47:44.658Z,87.67
2022-10-04T10:50:30.886Z,86.57
2022-10-04T10:53:20.094Z,87.56
2022-10-04T10:55:48.183Z,84.85
2022-10-04T10:58:44.114Z,85.64
2022-10-04T11:01:36.206Z,85.88
2022-10-04T11:04:30.619Z,81.73
2022-10-04T11:07:03.030Z,84.91
2022-10-04T11:09:57.326Z,84.52
2022-10-04T11:12:34.462Z,80.97
2022-10-04T11:15:36.207Z,83.96
2022-10-04T11:18:37.059Z,83.08
2022-10-04T11:21:21.779Z,84.39
2022-10-04T11:24:07.176Z,80.92
2022-10-04T11:27:10.114Z,80.88
2022-10-04T11:30:03.411Z,81.06
2022-10-04T11:33:09.656Z,78.83
2022-10-04T11:35:51.394Z,78.19
2022-10-04T11:38:48.582Z,77.82
2022-10-04T11:41:30.033Z,75.77
2022-10-04T11:44:02.243Z,75.34
2022-10-04T11:47:13.823Z,74.86
2022-10-04T11:49:56.542Z,76.51
2022-10-04T11:52:40.613Z,76.83
2022-10-04T11:55:44.944Z,74.58
2022-10-04T11:58:32.838Z,75.88
2022-10-04T12:01:11.644Z,73.75
2022-10-04T12:03:47.393Z,72.61
2022-10-04T12:06:38.872Z,76.95
2022-10-04T12:09:30.137Z,75.94
2022-10-04T12:12:34.605Z,75.17
2022-10-04T12:15:18.953Z,75.25
2022-10-04T12:18:12.269Z,72.29
2022-10-04T12:20:58.055Z,73.85
2022-10-04T12:23:48.586Z,70.25
2022-10-04T12:26:32.867Z,72.33
2022-10-04T12:29:17.647Z,72.69
2022-10-04T12:32:33.388Z,72.85
2022-10-04T12:35:11.933Z,72.71
2022-10-04T12:38:23.454Z,71.54
2022-10-04T12:40:52.523Z,69.22
2022-10-04T12:43:35.691Z,70.44
2022-10-04T12:46:08.121Z,69.39
2022-10-04T12:48:54.044Z,69.45
2022-10-04T12:51:48.033Z,68.84
2022-10-04T12:54:33.764Z,71.38
2022-10-04T12:57:29.624Z,70.67
2022-10-04T13:00:01.732Z,70.43
2022-10-04T13:02:37.340Z,69.11
2022-10-04T13:05:41.393Z,67.89
2022-10-04T13:08:30.988Z,69.28
2022-10-04T13:11:26.463Z,69.97
2022-10-04T13:14:18.639Z,69.29
2022-10-04T13:19:59.256Z,70.21
2022-10-04T13:22:58.284Z,69.38
2022-10-04T13:26:04.070Z,68.49
2022-10-04T13:28:46.989Z,68.59
2022-10-04T13:31:35.253Z,70.59
2022-10-04T13:34:20.214Z,69.85
2022-10-04T13:37:06.046Z,69.18
2022-10-04T13:39:43.309Z,67.25
2022-10-04T13:42:51.315Z,68.56
2022-10-04T13:45:24.436Z,67.56
2022-10-04T13:48:27.623Z,68.40
2022-10-04T13:51:28.002Z,67.04
2022-10-04T13:54:15.811Z,65.43
2022-10-04T13:57:00.451Z,67.08
2022-10-04T13:59:42.686Z,67.48
2022-10-04T14:02:56.616Z,68.23
2022-10-04T14:06:01.721Z,67.41
2022-10-04T14:08:50.718Z,66.32
2022-10-04T14:11:43.699Z,68.46
2022-10-04T14:14:31.184Z,70.08
2022-10-04T14:17:13.942Z,71.19
2022-10-04T14:20:11.246Z,70.20
2022-10-04T14:23:00.525Z,70.69
2022-10-04T14:25:58.569Z,69.54
2022-10-04T14:28:44.334Z,69.09
2022-10-04T14:32:06.638Z,67.69
2022-10-04T14:34:56.988Z,69.26
2022-10-04T14:38:05.210Z,68.48
2022-10-04T14:40:59.189Z,68.18
2022-10-04T14:43:55.595Z,70.07
2022-10-04T14:47:01.724Z,69.73
2022-10-04T14:49:46.727Z,71.57
2022-10-04T14:52:28.413Z,72.61
2022-10-04T14:55:10.361Z,70.84
2022-10-04T14:57:51.495Z,70.64
2022-10-04T15:00:23.701Z,70.84
2022-10-04T15:03:04.460Z,70.39
2022-10-04T15:06:12.005Z,71.03
2022-10-04T15:08:57.175Z,72.60
2022-10-04T15:12:27.138Z,72.75
2022-10-04T15:15:07.140Z,73.02
2022-10-04T15:17:41.691Z,72.62
2022-10-04T15:20:35.176Z,72.22
2022-10-04T15:23:01.454Z,72.98
2022-10-04T15:25:42.995Z,72.18
2022-10-04T15:28:46.857Z,73.19
2022-10-04T15:31:37.258Z,72.90
2022-10-04T15:34:12.589Z,74.23
2022-10-04T15:36:41.632Z,75.69
2022-10-04T15:39:54.715Z,75.05
2022-10-04T15:42:33.372Z,75.65
2022-10-04T15:45:17.690Z,76.51
2022-10-04T15:48:11.164Z,76.89
2022-10-04T15:50:53.323Z,78.55
2022-10-04T15:53:55.207Z,79.58
2022-10-04T15:56:30.633Z,79.87
2022-10-04T15:59:25.681Z,81.47
2022-10-04T16:02:04.605Z,82.04
2022-10-04T16:04:41.603Z,83.76
2022-10-04T16:07:07.858Z,84.48
2022-10-04T16:09:55.962Z,86.25
2022-10-04T16:12:39.462Z,88.67
2022-10-04T16:15:38.605Z,88.68
2022-10-04T16:18:40.476Z,89.44
2022-10-04T16:21:31.286Z,91.34
2022-10-04T16:24:19.657Z,92.92
2022-10-04T16:26:47.393Z,93.86
2022-10-04T16:29:45.349Z,95.59
2022-10-04T16:32:17.906Z,96.27
2022-10-04T16:34:59.818Z,96.56
2022-10-04T16:37:33.897Z,97.08
2022-10-04T16:40:25.042Z,97.12
2022-10-04T16:43:03.994Z,97.75
2022-10-04T16:45:43.552Z,98.31
2022-10-04T16:48:28.720Z,100.00
2022-10-04T16:51:23.126Z,100.00
2022-10-04T16:53:59.388Z,100.00
2022-10-04T16:56:32.753Z,100.00
2022-10-04T16:59:11.665Z,100.00
2022-10-04T17:02:15.572Z,100.00
2022-10-04T17:04:55.349Z,100.00
2022-10-04T17:07:57.562Z,100.00
2022-10-04T17:10:48.927Z,100.00
2022-10-04T17:13:34.615Z,100.00
2022-10-04T17:16:14.819Z,100.00
2022-10-04T17:19:12.825Z,100.00
2022-10-04T17:22:04.056Z,100.00
2022-10-04T17:24:37.290Z,100.00
2022-10-04T17:27:39.134Z,100.00
2022-10-04T17:30:16.338Z,100.00
2022-10-04T17:33:12.361Z,100.00
2022-10-04T17:35:53.892Z,100.00
2022-10-04T17:38:46.896Z,100.00
2022-10-04T17:41:39.949Z,100.00
2022-10-04T17:45:00.917Z,100.00
2022-10-04T17:47:54.862Z,100.00
2022-10-04T17:50:56.093Z,100.00
2022-10-04T17:53:46.908Z,100.00
2022-10-04T17:56:21.952Z,100.00
2022-10-04T17:58:53.841Z,100.00
2022-10-04T18:01:38.043Z,100.00
2022-10-04T18:04:14.894Z,100.00
2022-10-04T18:07:01.382Z,100.00
2022-10-04T18:09:33.906Z,100.00
2022-10-04T18:12:06.770Z,100.00
2022-10-04T18:14:51.300Z,100.00
2022-10-04T18:17:35.488Z,100.00
2022-10-04T18:20:10.946Z,100.00
2022-10-04T18:22:56.405Z,100.00
2022-10-04T18:25:28.772Z,100.00
2022-10-04T18:28:07.485Z,100.00
2022-10-04T18:30:34.968Z,100.00
2022-10-04T18:33:05.198Z,100.00
2022-10-04T18:35:33.782Z,100.00
2022-10-04T18:38:21.614Z,100.00
2022-10-04T18:40:56.752Z,100.00
2022-10-04T18:43:34.961Z,100.00
2022-10-04T18:46:13.613Z,100.00
2022-10-04T18:48:55.157Z,100.00
2022-10-04T18:51:40.280Z,100.00
2022-10-04T18:54:21.958Z,100.00
2022-10-04T18:57:09.159Z,100.00
2022-10-04T19:00:09.524Z,100.00
2022-10-04T19:02:47.936Z,100.00
2022-10-04T19:05:21.018Z,100.00
2022-10-04T19:08:02.279Z,100.00
2022-10-04T19:10:54.105Z,100.00
2022-10-04T19:14:08.119Z,100.00
2022-10-04T19:16:54.332Z,100.00
2022-10-04T19:19:46.745Z,100.00
2022-10-04T19:22:26.438Z,100.00
2022-10-04T19:25:18.189Z,100.00
2022-10-04T19:28:00.454Z,100.00
2022-10-04T19:30:42.051Z,100.00
2022-10-04T19:33:25.185Z,100.00
2022-10-04T19:36:16.700Z,100.00
2022-10-04T19:38:59.130Z,100.00
2022-10-04T19:41:48.568Z,100.00
2022-10-04T19:44:41.949Z,100.00
2022-10-04T19:47:22.707Z,100.00
2022-10-04T19:50:03.666Z,100.00
2022-10-04T19:52:46.332Z,100.00
2022-10-04T19:55:30.900Z,100.00
2022-10-04T19:58:25.691Z,100.00
2022-10-04T20:00:52.928Z,100.00
2022-10-04T20:03:19.780Z,100.00
2022-10-04T20:05:48.995Z,100.00
2022-10-04T20:08:37.010Z,100.00
2022-10-04T20:11:49.446Z,100.00
2022-10-04T20:14:16.083Z,100.00
2022-10-04T20:16:49.257Z,100.00
2022-10-04T20:19:18.810Z,100.00
2022-10-04T20:21:45.652Z,100.00
2022-10-04T20:24:17.289Z,100.00
2022-10-04T20:27:01.293Z,100.00
2022-10-04T20:29:36.415Z,100.00
2022-10-04T20:32:29.769Z,100.00
2022-10-04T20:34:57.672Z,100.00
2022-10-04T20:38:13.882Z,100.00
2022-10-04T20:40:44.740Z,100.00
2022-10-04T20:43:13.948Z,100.00
2022-10-04T20:45:52.829Z,100.00
2022-10-04T20:48:25.139Z,100.00
2022-10-04T20:50:52.699Z,100.00
2022-10-04T20:53:20.587Z,100.00
2022-10-04T20:55:48.835Z,100.00
2022-10-04T20:58:31.450Z,100.00
2022-10-04T21:01:02.678Z,100.00
2022-10-04T21:03:30.355Z,100.00
2022-10-04T21:06:02.836Z,100.00
2022-10-04T21:08:29.824Z,100.00
2022-10-04T21:11:07.302Z,100.00
2022-10-04T21:13:43.497Z,100.00
2022-10-04T21:16:10.433Z,100.00
2022-10-04T21:18:36.983Z,100.00
2022-10-04T21:21:03.444Z,100.00
2022-10-04T21:23:34.852Z,100.00
2022-10-04T21:26:23.560Z,100.00
2022-10-04T21:28:54.294Z,100.00
2022-10-04T21:31:20.750Z,100.00
2022-10-04T21:33:47.329Z,100.00
2022-10-04T21:36:13.770Z,100.00
2022-10-04T21:38:40.512Z,100.00
2022-10-04T21:41:07.377Z,100.00
2022-10-04T21:43:34.104Z,100.00
2022-10-04T21:46:00.693Z,100.00
2022-10-04T21:48:27.599Z,100.00
2022-10-04T21:50:54.862Z,100.00
2022-10-04T21:53:21.744Z,100.00
2022-10-04T21:55:48.187Z,100.00
2022-10-04T21:58:14.647Z,100.00
2022-10-04T22:00:41.018Z,100.00
2022-10-04T22:03:07.379Z,100.00
2022-10-04T22:05:34.114Z,100.00
2022-10-04T22:08:00.882Z,100.00
2022-10-04T22:10:27.253Z,100.00
2022-10-04T22:12:57.019Z,100.00
2022-10-04T22:15:27.947Z,100.00
2022-10-04T22:17:55.038Z,100.00
2022-10-04T22:20:22.187Z,100.00
2022-10-04T22:22:48.909Z,100.00
2022-10-04T22:25:18.246Z,100.00
2022-10-04T22:27:45.958Z,100.00
2022-10-04T22:30:26.789Z,100.00
2022-10-04T22:32:58.388Z,100.00
2022-10-04T22:35:25.287Z,100.00
2022-10-04T22:37:51.916Z,100.00
2022-10-04T22:40:21.400Z,100.00
2022-10-04T22:42:56.841Z,100.00
2022-10-04T22:45:25.827Z,100.00
2022-10-04T22:47:55.802Z,100.00
2022-10-04T22:50:29.745Z,100.00
2022-10-04T22:52:56.949Z,100.00
2022-10-04T22:55:23.537Z,100.00
2022-10-04T22:57:50.227Z,100.00
2022-10-04T23:00:16.658Z,100.00
2022-10-04T23:02:43.131Z,100.00
2022-10-04T23:05:15.122Z,100.00
2022-10-04T23:07:43.055Z,100.00
2022-10-04T23:10:10.825Z,100.00
2022-10-04T23:12:37.887Z,100.00
2022-10-04T23:15:08.539Z,100.00
2022-10-04T23:17:38.575Z,100.00
2022-10-04T23:20:14.700Z,100.00
2022-10-04T23:22:45.114Z,100.00
2022-10-04T23:25:15.000Z,100.00
2022-10-04T23:27:41.651Z,100.00
2022-10-04T23:30:21.868Z,100.00
2022-10-04T23:32:51.926Z,100.00
2022-10-04T23:35:22.396Z,100.00
2022-10-04T23:37:49.702Z,100.00
2022-10-04T23:40:20.650Z,100.00
2022-10-04T23:42:49.203Z,100.00
2022-10-04T23:45:23.453Z,100.00
2022-10-04T23:47:53.230Z,100.00
2022-10-04T23:50:36.017Z,100.00
2022-10-04T23:53:06.314Z,100.00
2022-10-04T23:55:35.877Z,100.00
2022-10-04T23:58:13.382Z,100.00
